createdAt,value
2022-10-20T00:02:04.379Z,99249.50
2022-10-20T00:04:33.966Z,99254.09
2022-10-20T00:07:01.980Z,99254.09
2022-10-20T00:09:29.990Z,99253.81
2022-10-20T00:11:58.064Z,99254.78
2022-10-20T00:14:26.076Z,99253.69
2022-10-20T00:16:54.035Z,99255.22
2022-10-20T00:19:22.044Z,99258.31
2022-10-20T00:21:51.402Z,99266.22
2022-10-20T00:24:20.872Z,99271.94
2022-10-20T00:26:48.992Z,99263.16
2022-10-20T00:31:45.944Z,99262.03
2022-10-20T00:34:13.937Z,99261.06
2022-10-20T00:36:41.991Z,99257.97
2022-10-20T00:39:11.389Z,99263.47
2022-10-20T00:41:39.370Z,99264.47
2022-10-20T00:44:40.492Z,99260.59
2022-10-20T00:47:11.576Z,99260.94
2022-10-20T00:49:40.386Z,99259.59
2022-10-20T00:52:09.350Z,99268.59
2022-10-20T00:54:39.104Z,99263.59
2022-10-20T00:57:07.567Z,99257.94
2022-10-20T00:59:38.390Z,99258.50
2022-10-20T01:02:08.249Z,99259.41
2022-10-20T01:04:38.399Z,99256.31
2022-10-20T01:07:07.039Z,99253.13
2022-10-20T01:09:35.451Z,99245.44
2022-10-20T01:12:12.183Z,99252.69
2022-10-20T01:14:48.272Z,99257.75
2022-10-20T01:17:27.233Z,99256.53
2022-10-20T01:20:21.753Z,99251.72
2022-10-20T01:23:35.534Z,99249.94
2022-10-20T01:26:43.814Z,99247.84
2022-10-20T01:29:17.410Z,99247.16
2022-10-20T01:31:50.796Z,99251.97
2022-10-20T01:34:28.085Z,99250.47
2022-10-20T01:37:01.399Z,99249.38
2022-10-20T01:39:34.408Z,99249.81
2022-10-20T01:42:07.310Z,99255.59
2022-10-20T01:44:39.772Z,99252.38
2022-10-20T01:47:10.087Z,99255.03
2022-10-20T01:49:38.492Z,99261.53
2022-10-20T01:52:06.595Z,99258.63
2022-10-20T01:54:34.635Z,99247.25
2022-10-20T01:57:18.324Z,99252.59
2022-10-20T02:00:02.569Z,99252.63
2022-10-20T02:03:11.016Z,99251.09
2022-10-20T02:05:54.188Z,99253.81
2022-10-20T02:08:31.595Z,99255.31
2022-10-20T02:11:02.845Z,99249.38
2022-10-20T02:13:31.942Z,99247.22
2022-10-20T02:16:06.005Z,99254.69
2022-10-20T02:18:40.450Z,99255.44
2022-10-20T02:21:09.319Z,99251.63
2022-10-20T02:23:39.951Z,99249.75
2022-10-20T02:26:10.752Z,99247.16
2022-10-20T02:28:41.993Z,99252.97
2022-10-20T02:31:11.972Z,99253.94
2022-10-20T02:33:41.377Z,99260.88
2022-10-20T02:36:16.704Z,99252.00
2022-10-20T02:38:45.194Z,99258.69
2022-10-20T02:41:13.470Z,99258.00
2022-10-20T02:43:41.475Z,99265.94
2022-10-20T02:46:09.462Z,99265.66
2022-10-20T02:48:39.350Z,99254.91
2022-10-20T02:51:07.517Z,99251.56
2022-10-20T02:53:35.510Z,99256.72
2022-10-20T02:56:03.478Z,99260.44
2022-10-20T02:58:31.499Z,99256.09
2022-10-20T03:00:59.560Z,99259.44
2022-10-20T03:03:27.659Z,99259.06
2022-10-20T03:05:57.138Z,99275.00
2022-10-20T03:08:25.122Z,99275.69
2022-10-20T03:10:53.123Z,99277.59
2022-10-20T03:13:21.107Z,99287.00
2022-10-20T03:15:49.117Z,99274.78
2022-10-20T03:18:17.053Z,99271.84
2022-10-20T03:20:45.349Z,99285.72
2022-10-20T03:23:17.695Z,99287.84
2022-10-20T03:25:48.101Z,99291.31
2022-10-20T03:28:16.048Z,99291.91
2022-10-20T03:30:44.059Z,99289.66
2022-10-20T03:33:12.041Z,99299.63
2022-10-20T03:35:40.079Z,99295.97
2022-10-20T03:38:08.012Z,99289.06
2022-10-20T03:40:37.365Z,99299.94
2022-10-20T03:43:05.428Z,99303.50
2022-10-20T03:45:33.468Z,99302.34
2022-10-20T03:48:01.383Z,99304.69
2022-10-20T03:50:29.360Z,99301.41
2022-10-20T03:52:57.340Z,99309.81
2022-10-20T03:55:25.303Z,99301.50
2022-10-20T03:57:54.718Z,99311.38
2022-10-20T04:00:22.704Z,99312.91
2022-10-20T04:02:51.486Z,99316.19
2022-10-20T04:05:21.434Z,99308.81
2022-10-20T04:07:49.508Z,99304.41
2022-10-20T04:10:17.855Z,99308.47
2022-10-20T04:12:45.918Z,99307.97
2022-10-20T04:15:15.489Z,99298.59
2022-10-20T04:17:43.452Z,99298.91
2022-10-20T04:20:11.908Z,99305.69
2022-10-20T04:22:40.628Z,99303.38
2022-10-20T04:25:09.378Z,99303.56
2022-10-20T04:27:37.601Z,99307.34
2022-10-20T04:30:06.825Z,99306.63
2022-10-20T04:32:36.264Z,99305.59
2022-10-20T04:35:04.524Z,99310.03
2022-10-20T04:37:32.554Z,99304.44
2022-10-20T04:40:00.502Z,99304.97
2022-10-20T04:42:28.481Z,99298.06
2022-10-20T04:47:33.073Z,99307.09
2022-10-20T04:50:02.468Z,99299.28
2022-10-20T04:52:30.544Z,99303.66
2022-10-20T04:54:58.550Z,99300.88
2022-10-20T04:57:26.556Z,99314.03
2022-10-20T04:59:54.679Z,99303.56
2022-10-20T05:02:22.601Z,99301.75
2022-10-20T05:04:50.562Z,99309.06
2022-10-20T05:07:19.921Z,99310.31
2022-10-20T05:09:49.246Z,99309.56
2022-10-20T05:12:17.211Z,99319.75
2022-10-20T05:14:45.157Z,99316.56
2022-10-20T05:17:13.107Z,99317.91
2022-10-20T05:19:41.029Z,99322.31
2022-10-20T05:22:08.977Z,99317.59
2022-10-20T05:24:38.630Z,99321.81
2022-10-20T05:27:06.680Z,99326.28
2022-10-20T05:29:34.685Z,99326.19
2022-10-20T05:32:02.694Z,99335.03
2022-10-20T05:34:30.710Z,99335.03
2022-10-20T05:36:58.783Z,99340.47
2022-10-20T05:39:26.723Z,99330.09
2022-10-20T05:41:56.146Z,99333.38
2022-10-20T05:44:24.149Z,99336.88
2022-10-20T05:46:52.101Z,99341.63
2022-10-20T05:49:20.205Z,99341.56
2022-10-20T05:51:48.460Z,99343.25
2022-10-20T05:54:16.900Z,99349.09
2022-10-20T05:56:45.417Z,99347.19
2022-10-20T05:59:15.106Z,99348.81
2022-10-20T06:01:49.040Z,99344.31
2022-10-20T06:04:18.942Z,99352.41
2022-10-20T06:06:48.992Z,99349.88
2022-10-20T06:09:17.790Z,99349.16
2022-10-20T06:11:45.941Z,99348.31
2022-10-20T06:14:15.938Z,99362.91
2022-10-20T06:16:44.217Z,99355.94
2022-10-20T06:19:12.223Z,99358.59
2022-10-20T06:21:40.296Z,99351.84
2022-10-20T06:24:08.610Z,99358.44
2022-10-20T06:26:37.785Z,99366.50
2022-10-20T06:29:07.470Z,99363.75
2022-10-20T06:31:39.196Z,99361.06
2022-10-20T06:34:08.421Z,99367.75
2022-10-20T06:36:37.899Z,99372.03
2022-10-20T06:39:07.905Z,99362.94
2022-10-20T06:41:36.385Z,99361.56
2022-10-20T06:44:05.067Z,99360.56
2022-10-20T06:46:35.247Z,99364.25
2022-10-20T06:49:06.439Z,99372.19
2022-10-20T06:51:35.135Z,99366.75
2022-10-20T06:54:03.652Z,99368.69
2022-10-20T06:56:33.946Z,99368.50
2022-10-20T06:59:02.805Z,99369.88
2022-10-20T07:01:32.678Z,99366.97
2022-10-20T07:04:02.828Z,99367.31
2022-10-20T07:06:34.342Z,99372.63
2022-10-20T07:09:04.277Z,99365.78
2022-10-20T07:11:33.235Z,99357.00
2022-10-20T07:14:03.210Z,99362.94
2022-10-20T07:16:33.657Z,99354.91
2022-10-20T07:19:02.160Z,99359.97
2022-10-20T07:21:36.017Z,99360.53
2022-10-20T07:24:07.369Z,99354.91
2022-10-20T07:26:36.590Z,99356.31
2022-10-20T07:29:05.829Z,99358.53
2022-10-20T07:31:36.648Z,99361.47
2022-10-20T07:34:14.038Z,99359.81
2022-10-20T07:36:54.240Z,99353.16
2022-10-20T07:39:22.362Z,99360.44
2022-10-20T07:41:50.373Z,99360.38
2022-10-20T07:44:18.881Z,99351.09
2022-10-20T07:46:46.875Z,99341.75
2022-10-20T07:52:04.423Z,99352.56
2022-10-20T07:54:32.878Z,99344.28
2022-10-20T07:57:00.991Z,99348.84
2022-10-20T07:59:29.702Z,99347.69
2022-10-20T08:01:59.806Z,99348.50
2022-10-20T08:04:28.934Z,99354.28
2022-10-20T08:06:56.947Z,99349.06
2022-10-20T08:09:26.378Z,99353.88
2022-10-20T08:11:55.866Z,99362.50
2022-10-20T08:14:27.032Z,99350.59
2022-10-20T08:17:02.644Z,99355.56
2022-10-20T08:19:44.663Z,99357.44
2022-10-20T08:22:13.084Z,99360.59
2022-10-20T08:24:42.378Z,99367.28
2022-10-20T08:27:10.421Z,99362.50
2022-10-20T08:29:38.571Z,99362.53
2022-10-20T08:32:07.071Z,99360.56
2022-10-20T08:34:35.063Z,99361.19
2022-10-20T08:37:03.029Z,99358.31
2022-10-20T08:39:31.240Z,99366.72
2022-10-20T08:42:09.563Z,99369.38
2022-10-20T08:44:39.692Z,99370.97
2022-10-20T08:47:29.359Z,99361.97
2022-10-20T08:50:01.129Z,99364.94
2022-10-20T08:52:29.509Z,99370.47
2022-10-20T08:54:58.960Z,99367.84
2022-10-20T08:57:33.399Z,99364.63
2022-10-20T09:00:15.261Z,99369.84
2022-10-20T09:02:43.549Z,99368.16
2022-10-20T09:05:16.668Z,99367.72
2022-10-20T09:07:48.519Z,99358.78
2022-10-20T09:10:26.465Z,99358.00
2022-10-20T09:12:56.093Z,99360.16
2022-10-20T09:15:26.644Z,99357.59
2022-10-20T09:17:57.020Z,99353.59
2022-10-20T09:20:30.529Z,99346.97
2022-10-20T09:23:01.335Z,99350.19
2022-10-20T09:25:32.484Z,99329.47
2022-10-20T09:28:01.989Z,99343.13
2022-10-20T09:30:35.451Z,99338.53
2022-10-20T09:33:22.081Z,99341.59
2022-10-20T09:35:51.581Z,99341.59
2022-10-20T09:38:23.979Z,99334.69
2022-10-20T09:41:08.162Z,99334.66
2022-10-20T09:43:40.918Z,99336.66
2022-10-20T09:46:12.273Z,99327.25
2022-10-20T09:48:43.784Z,99333.84
2022-10-20T09:51:16.257Z,99326.34
2022-10-20T09:53:53.660Z,99336.38
2022-10-20T09:56:27.055Z,99334.94
2022-10-20T09:58:57.777Z,99323.53
2022-10-20T10:01:25.894Z,99330.00
2022-10-20T10:03:56.829Z,99327.78
2022-10-20T10:06:41.524Z,99322.25
2022-10-20T10:09:28.840Z,99326.19
2022-10-20T10:12:02.324Z,99328.44
2022-10-20T10:14:34.340Z,99325.56
2022-10-20T10:17:02.761Z,99326.06
2022-10-20T10:19:32.493Z,99326.22
2022-10-20T10:22:02.989Z,99330.75
2022-10-20T10:24:49.937Z,99325.97
2022-10-20T10:27:25.165Z,99318.59
2022-10-20T10:29:54.973Z,99328.78
2022-10-20T10:32:26.013Z,99324.25
2022-10-20T10:35:20.395Z,99312.44
2022-10-20T10:37:49.727Z,99306.09
2022-10-20T10:40:19.986Z,99314.69
2022-10-20T10:43:22.266Z,99307.47
2022-10-20T10:45:54.077Z,99305.81
2022-10-20T10:48:40.764Z,99303.94
2022-10-20T10:51:12.048Z,99303.09
2022-10-20T10:53:56.927Z,99300.22
2022-10-20T10:56:32.996Z,99300.44
2022-10-20T10:59:07.815Z,99291.94
2022-10-20T11:02:00.700Z,99288.25
2022-10-20T11:05:01.433Z,99293.38
2022-10-20T11:07:37.759Z,99285.69
2022-10-20T11:10:11.975Z,99279.16
2022-10-20T11:12:57.545Z,99285.84
2022-10-20T11:15:40.776Z,99277.53
2022-10-20T11:18:18.550Z,99277.91
2022-10-20T11:20:57.150Z,99277.81
2022-10-20T11:23:54.884Z,99271.09
2022-10-20T11:26:44.839Z,99267.22
2022-10-20T11:29:17.857Z,99257.50
2022-10-20T11:31:54.574Z,99253.63
2022-10-20T11:34:31.407Z,99256.38
2022-10-20T11:37:07.079Z,99251.22
2022-10-20T11:39:41.743Z,99253.50
2022-10-20T11:42:21.758Z,99238.28
2022-10-20T11:44:50.559Z,99233.97
2022-10-20T11:47:24.875Z,99236.31
2022-10-20T11:49:54.543Z,99223.88
2022-10-20T11:52:48.517Z,99220.41
2022-10-20T11:55:31.806Z,99212.63
2022-10-20T11:58:19.138Z,99211.81
2022-10-20T12:01:01.249Z,99213.09
2022-10-20T12:04:00.571Z,99201.28
2022-10-20T12:07:02.192Z,99209.69
2022-10-20T12:09:45.918Z,99201.09
2022-10-20T12:12:18.230Z,99207.59
2022-10-20T12:14:51.080Z,99203.66
2022-10-20T12:17:27.985Z,99199.19
2022-10-20T12:20:37.993Z,99203.91
2022-10-20T12:23:07.452Z,99199.72
2022-10-20T12:25:42.170Z,99194.72
2022-10-20T12:28:49.920Z,99192.75
2022-10-20T12:31:17.915Z,99182.84
2022-10-20T12:34:01.734Z,99188.63
2022-10-20T12:36:35.698Z,99189.38
2022-10-20T12:39:17.767Z,99195.53
2022-10-20T12:41:57.554Z,99182.34
2022-10-20T12:44:26.780Z,99179.69
2022-10-20T12:46:58.340Z,99176.13
2022-10-20T12:49:31.679Z,99172.25
2022-10-20T12:52:00.756Z,99160.03
2022-10-20T12:54:36.318Z,99158.66
2022-10-20T12:57:25.169Z,99164.88
2022-10-20T12:59:53.264Z,99163.28
2022-10-20T13:02:33.938Z,99158.94
2022-10-20T13:05:05.432Z,99163.53
2022-10-20T13:08:10.873Z,99167.88
2022-10-20T13:10:40.480Z,99165.56
2022-10-20T13:13:44.146Z,99162.75
2022-10-20T13:16:22.088Z,99163.53
2022-10-20T13:18:51.702Z,99161.50
2022-10-20T13:21:27.032Z,99163.72
2022-10-20T13:24:10.365Z,99163.03
2022-10-20T13:26:49.156Z,99152.69
2022-10-20T13:29:25.884Z,99158.16
2022-10-20T13:34:45.910Z,99152.44
2022-10-20T13:37:51.429Z,99151.88
2022-10-20T13:40:30.973Z,99141.50
2022-10-20T13:43:13.380Z,99136.69
2022-10-20T13:45:56.433Z,99140.75
2022-10-20T13:48:42.006Z,99137.66
2022-10-20T13:51:19.782Z,99140.13
2022-10-20T13:53:52.639Z,99135.16
2022-10-20T13:56:28.996Z,99132.34
2022-10-20T13:59:05.636Z,99133.06
2022-10-20T14:01:36.147Z,99132.59
2022-10-20T14:04:20.296Z,99129.56
2022-10-20T14:06:48.704Z,99126.25
2022-10-20T14:09:20.469Z,99122.19
2022-10-20T14:11:51.673Z,99121.44
2022-10-20T14:14:24.936Z,99129.06
2022-10-20T14:16:55.687Z,99124.19
2022-10-20T14:19:28.023Z,99128.72
2022-10-20T14:21:57.609Z,99121.09
2022-10-20T14:24:31.389Z,99127.47
2022-10-20T14:27:00.774Z,99119.41
2022-10-20T14:29:33.446Z,99124.19
2022-10-20T14:32:01.803Z,99121.69
2022-10-20T14:34:34.467Z,99114.47
2022-10-20T14:37:03.700Z,99116.50
2022-10-20T14:39:37.613Z,99111.97
2022-10-20T14:42:15.907Z,99105.50
2022-10-20T14:44:46.109Z,99101.94
2022-10-20T14:47:15.833Z,99106.97
2022-10-20T14:49:48.975Z,99104.56
2022-10-20T14:52:22.912Z,99114.06
2022-10-20T14:54:52.091Z,99117.31
2022-10-20T14:57:45.990Z,99110.50
2022-10-20T15:00:34.539Z,99103.47
2022-10-20T15:03:07.008Z,99093.88
2022-10-20T15:05:39.907Z,99101.75
2022-10-20T15:08:17.759Z,99103.16
2022-10-20T15:10:46.145Z,99097.09
2022-10-20T15:13:27.964Z,99088.25
2022-10-20T15:15:58.877Z,99091.47
2022-10-20T15:18:27.748Z,99086.66
2022-10-20T15:20:56.854Z,99081.22
2022-10-20T15:23:27.017Z,99084.03
2022-10-20T15:25:59.181Z,99088.59
2022-10-20T15:28:33.329Z,99084.19
2022-10-20T15:31:04.937Z,99079.53
2022-10-20T15:33:33.153Z,99083.28
2022-10-20T15:36:01.931Z,99080.34
2022-10-20T15:38:30.042Z,99071.06
2022-10-20T15:43:28.665Z,99073.94
2022-10-20T15:45:56.710Z,99068.84
2022-10-20T15:48:26.239Z,99064.97
2022-10-20T15:50:54.618Z,99067.34
2022-10-20T15:53:22.596Z,99065.25
2022-10-20T15:55:50.783Z,99064.66
2022-10-20T15:58:18.761Z,99068.81
2022-10-20T16:00:46.778Z,99070.84
2022-10-20T16:03:18.149Z,99070.28
2022-10-20T16:05:48.075Z,99071.88
2022-10-20T16:08:16.127Z,99072.97
2022-10-20T16:10:44.237Z,99061.00
2022-10-20T16:13:12.610Z,99061.00
2022-10-20T16:15:40.683Z,99055.88
2022-10-20T16:18:09.903Z,99058.06
2022-10-20T16:20:38.273Z,99060.31
2022-10-20T16:23:07.807Z,99065.00
2022-10-20T16:25:35.790Z,99070.50
2022-10-20T16:28:03.750Z,99068.66
2022-10-20T16:30:31.752Z,99066.28
2022-10-20T16:32:59.723Z,99070.56
2022-10-20T16:35:27.860Z,99082.69
2022-10-20T16:50:19.064Z,99084.22
2022-10-20T16:52:47.074Z,99075.94
2022-10-20T16:55:15.037Z,99078.22
2022-10-20T16:57:43.000Z,99079.75
2022-10-20T17:00:12.107Z,99082.81
2022-10-20T17:02:42.957Z,99089.06
2022-10-20T17:05:11.312Z,99091.63
2022-10-20T17:07:40.870Z,99082.38
2022-10-20T17:10:10.818Z,99082.63
2022-10-20T17:12:38.917Z,99084.03
2022-10-20T17:15:07.710Z,99087.81
2022-10-20T17:17:35.991Z,99076.81
2022-10-20T17:20:04.577Z,99077.28
2022-10-20T17:22:32.729Z,99077.16
2022-10-20T17:25:02.173Z,99070.94
2022-10-20T17:27:30.135Z,99084.94
2022-10-20T17:29:58.077Z,99078.94
2022-10-20T17:32:26.099Z,99084.81
2022-10-20T17:34:54.028Z,99082.19
2022-10-20T17:37:22.010Z,99081.34
2022-10-20T17:39:49.973Z,99080.22
2022-10-20T17:42:19.353Z,99080.66
2022-10-20T17:44:47.278Z,99078.88
2022-10-20T17:47:15.251Z,99083.28
2022-10-20T17:49:43.264Z,99085.06
2022-10-20T17:52:11.320Z,99081.69
2022-10-20T17:54:39.278Z,99080.66
2022-10-20T17:57:07.281Z,99078.28
2022-10-20T17:59:47.309Z,99083.72
2022-10-20T18:02:23.747Z,99087.25
2022-10-20T18:04:52.150Z,99080.66
2022-10-20T18:07:20.158Z,99080.47
2022-10-20T18:09:48.261Z,99075.34
2022-10-20T18:12:16.251Z,99071.88
2022-10-20T18:14:45.673Z,99079.66
2022-10-20T18:17:13.892Z,99069.59
2022-10-20T18:19:42.024Z,99078.50
2022-10-20T18:22:10.002Z,99063.94
2022-10-20T18:24:37.999Z,99062.59
2022-10-20T18:27:06.722Z,99062.94
2022-10-20T18:29:34.762Z,99063.53
2022-10-20T18:32:04.238Z,99062.06
2022-10-20T18:34:32.197Z,99062.53
2022-10-20T18:37:03.451Z,99069.25
2022-10-20T18:39:32.578Z,99064.22
2022-10-20T18:42:00.807Z,99063.53
2022-10-20T18:47:04.564Z,99055.72
2022-10-20T18:49:32.561Z,99063.91
2022-10-20T18:52:00.577Z,99053.94
2022-10-20T18:54:28.573Z,99046.38
2022-10-20T18:56:56.573Z,99047.41
2022-10-20T18:59:24.612Z,99048.41
2022-10-20T19:01:52.575Z,99038.09
2022-10-20T19:04:21.901Z,99045.25
2022-10-20T19:06:50.138Z,99044.91
2022-10-20T19:09:20.129Z,99038.44
2022-10-20T19:14:22.093Z,99043.84
2022-10-20T19:16:50.267Z,99042.22
2022-10-20T19:19:18.335Z,99037.56
2022-10-20T19:21:47.745Z,99035.72
2022-10-20T19:24:20.536Z,99033.44
2022-10-20T19:26:57.484Z,99035.69
2022-10-20T19:29:30.689Z,99039.13
2022-10-20T19:32:00.547Z,99027.59
2022-10-20T19:34:30.949Z,99022.97
2022-10-20T19:37:00.888Z,99017.25
2022-10-20T19:39:32.268Z,99022.22
2022-10-20T19:42:01.807Z,99026.81
2022-10-20T19:44:30.291Z,99030.47
2022-10-20T19:46:58.416Z,99022.41
2022-10-20T19:49:27.514Z,99041.69
2022-10-20T19:51:55.588Z,99031.34
2022-10-20T19:54:24.973Z,99036.19
2022-10-20T19:56:53.117Z,99027.13
2022-10-20T19:59:21.268Z,99025.59
2022-10-20T20:01:50.019Z,99025.16
2022-10-20T20:04:18.146Z,99021.84
2022-10-20T20:06:46.077Z,99020.44
2022-10-20T20:09:15.824Z,99032.28
2022-10-20T20:11:45.772Z,99026.25
2022-10-20T20:14:16.285Z,99023.84
2022-10-20T20:16:46.023Z,99024.94
2022-10-20T20:19:15.662Z,99019.09
2022-10-20T20:21:43.854Z,99019.88
2022-10-20T20:24:14.210Z,99019.13
2022-10-20T20:26:42.272Z,99009.09
2022-10-20T20:29:11.893Z,99016.56
2022-10-20T20:31:40.017Z,99011.84
2022-10-20T20:34:07.994Z,99010.06
2022-10-20T20:36:35.967Z,99014.78
2022-10-20T20:39:03.966Z,99014.44
2022-10-20T20:41:31.973Z,99012.56
2022-10-20T20:44:04.174Z,99003.56
2022-10-20T20:46:36.414Z,99001.03
2022-10-20T20:49:04.663Z,98993.38
2022-10-20T20:51:34.042Z,98992.03
2022-10-20T20:54:03.202Z,98985.84
2022-10-20T20:56:31.334Z,98990.66
2022-10-20T20:58:59.366Z,98978.78
2022-10-20T21:01:28.617Z,98976.06
2022-10-20T21:03:59.606Z,98979.38
2022-10-20T21:06:33.822Z,98986.97
2022-10-20T21:09:07.027Z,98986.81
2022-10-20T21:11:35.126Z,98985.75
2022-10-20T21:14:03.516Z,98992.09
2022-10-20T21:16:33.197Z,98980.03
2022-10-20T21:19:04.591Z,98984.09
2022-10-20T21:21:34.868Z,98974.44
2022-10-20T21:24:04.407Z,98962.97
2022-10-20T21:26:33.551Z,98958.75
2022-10-20T21:29:01.513Z,98966.34
2022-10-20T21:31:30.712Z,98957.56
2022-10-20T21:33:59.889Z,98957.16
2022-10-20T21:36:31.496Z,98949.13
2022-10-20T21:38:59.610Z,98956.25
2022-10-20T21:41:29.507Z,98952.09
2022-10-20T21:43:59.344Z,98943.03
2022-10-20T21:46:29.384Z,98940.66
2022-10-20T21:49:01.114Z,98938.97
2022-10-20T21:51:32.463Z,98930.69
2022-10-20T21:54:02.443Z,98932.75
2022-10-20T21:56:33.152Z,98931.38
2022-10-20T21:59:01.135Z,98936.34
2022-10-20T22:01:29.278Z,98938.81
2022-10-20T22:03:57.677Z,98932.59
2022-10-20T22:06:27.971Z,98933.75
2022-10-20T22:08:59.683Z,98930.09
2022-10-20T22:11:29.751Z,98925.94
2022-10-20T22:13:58.731Z,98916.03
2022-10-20T22:16:28.991Z,98915.78
2022-10-20T22:18:57.487Z,98918.41
2022-10-20T22:21:25.673Z,98919.63
2022-10-20T22:23:54.565Z,98908.00
2022-10-20T22:26:25.759Z,98908.78
2022-10-20T22:28:54.134Z,98903.22
2022-10-20T22:31:23.073Z,98911.19
2022-10-20T22:33:51.959Z,98913.16
2022-10-20T22:36:20.193Z,98908.09
2022-10-20T22:38:48.256Z,98903.06
2022-10-20T22:41:16.257Z,98901.69
2022-10-20T22:43:45.582Z,98903.59
2022-10-20T22:46:13.586Z,98893.56
2022-10-20T22:48:41.559Z,98891.19
2022-10-20T22:51:10.967Z,98888.38
2022-10-20T22:53:39.706Z,98892.31
2022-10-20T22:56:09.699Z,98886.75
2022-10-20T22:58:37.736Z,98889.00
2022-10-20T23:01:11.258Z,98897.00
2022-10-20T23:03:40.314Z,98891.09
2022-10-20T23:06:09.507Z,98892.72
2022-10-20T23:08:43.180Z,98883.91
2022-10-20T23:11:11.489Z,98880.22
2022-10-20T23:13:39.519Z,98892.03
2022-10-20T23:16:08.130Z,98905.56
2022-10-20T23:18:37.780Z,98890.34
2022-10-20T23:21:06.867Z,98877.16
2022-10-20T23:23:37.884Z,98877.16
2022-10-20T23:26:07.059Z,98885.81
2022-10-20T23:28:35.557Z,98885.53
2022-10-20T23:31:09.334Z,98883.06
2022-10-20T23:33:39.467Z,98887.06
2022-10-20T23:36:08.217Z,98864.22
2022-10-20T23:38:36.267Z,98875.09
2022-10-20T23:41:05.175Z,98871.94
2022-10-20T23:43:33.680Z,98875.53
2022-10-20T23:46:01.775Z,98875.84
2022-10-20T23:48:30.065Z,98863.25
2022-10-20T23:50:59.427Z,98864.16
2022-10-20T23:53:27.809Z,98865.56
2022-10-20T23:55:55.773Z,98866.44
2022-10-20T23:58:23.838Z,98863.66
